Terminal Aerodrome Forecast
Issued by NWS

Home | Current Version | Previous Version | Text Only | Print | Product List | Glossary On
Versions: 1 2 3 4 5 6 7 8 9 10 11 12 13 14
000
FTUS45 KABQ 281143
TAFROW
TAF
KROW 281143Z 2812/2912 36009KT P6SM SCT250
     FM281700 23015G25KT P6SM SCT100
     FM282000 24025G35KT P6SM BKN120
     FM290130 34017G27KT P6SM VCSH BKN090
     FM290400 36015KT P6SM VCSH BKN070=

USA.gov is the U.S. government's official web portal to all federal, state and local government web resources and services.